Terminal Aerodrome Forecast
Issued by NWS Charleston, WV

Current Version | Previous Version | Graphics & Text | Print | Product List | Glossary On
Versions: 1 2 3 4 5 6 7 8 9 10 11 12 13 14 15 16 17 18 19 20 21 22
000
FTUS41 KRLX 242326
TAFPKB
TAF
KPKB 242326Z 2500/2524 21004KT P6SM BKN140
     FM251000 VRB03KT 5SM BR BKN050
     FM251200 00000KT P6SM BKN050
     FM251600 22006KT P6SM BKN070
     FM252000 21009KT P6SM SCT090=

USA.gov is the U.S. government's official web portal to all federal, state and local government web resources and services.